Back to top

Buffalo, WY weather

Johnson County Airport, Buffalo, WY: 11/13/2019 17:53
Visibility10 statute milessun with broken clouds
View 7-Day Forecast
Area Summary
Sky/CloudsScattered at 6500ft, Broken at 11000ft
Weather [last 24 hours]None [snow ended 04:51; rain began 13:39; rain ended 15:39; rain began 16:00 ended 16:26 began 16:47; unknown precip began 17:16 ended 17:20 ]
Pressure30.11 in.Hg (1020 hPa)
Dew Point30.9 °F (-0.6 °C)
Relative Humidity88.4 %
Hourly Precipitation0.01 in. (0.254 mm)
Last 24-Hour Precip.0.06 in. (1.524 mm)
Reading TimePrecipitation
6-hr ending 11/13@16:530.04 in. (1.016 mm)
6-hr ending 11/13@04:53Trace
Temperature34 °F (1.1 °C)red thermometer
Wind Chill28 °F (-2.24 °C)
Reading TimeMinimum to Maximum Temperature
6-hr ending 11/13@16:5337 °F to 43 °F (2.8 °C to 6.1 °C)
6-hr ending 11/13@10:5334 °F to 42.1 °F (1.1 °C to 5.6 °C)
6-hr ending 11/13@04:5333.1 °F to 42.1 °F (0.6 °C to 5.6 °C)
6-hr ending 11/12@22:5342.1 °F to 53.1 °F (5.6 °C to 11.7 °C)
24-hr ending 11/12@23:5319.9 °F to 53.1 °F (-6.7 °C to 11.7 °C)
Wind6.9 MPH (6 KT) green arrow pointing 247.5 degrees
Wind FromWest/Southwest (250 Degrees)
Rolling 24-hr Peak Wind41.4 MPH (36 KT) on 11/13@04:47
Rolling 24-hr Peak Wind FromNorth/Northwest (340 Degrees)
Twilight Begins06:28Sunshine Yesterday
Sunrise06:59N/A
Sunset16:43
Twilight Ends17:14
RemarksRAE27UPB16E20
METARKBYG 140053Z AUTO 25006KT 10SM SCT065 BKN110 01/M01 A3011 RMK AO2 RAE27UPB16E20 SLP212 P0001 T00111006
Tags: